sensor_id;sensor_type;location;lat;lon;timestamp;pressure;altitude;pressure_sealevel;temperature
82636;BMP280;72317;37.280;-121.948;2024-01-15T00:00:56;98226.91;;;16.11
82636;BMP280;72317;37.280;-121.948;2024-01-15T00:03:22;98268.03;;;16.05
82636;BMP280;72317;37.280;-121.948;2024-01-15T00:05:48;98362.16;;;15.89
82636;BMP280;72317;37.280;-121.948;2024-01-15T00:08:14;98459.66;;;15.91
82636;BMP280;72317;37.280;-121.948;2024-01-15T00:10:40;98512.78;;;15.94
82636;BMP280;72317;37.280;-121.948;2024-01-15T00:13:07;98534.09;;;15.83
82636;BMP280;72317;37.280;-121.948;2024-01-15T00:15:33;98535.44;;;15.87
82636;BMP280;72317;37.280;-121.948;2024-01-15T00:17:59;98611.16;;;15.74
82636;BMP280;72317;37.280;-121.948;2024-01-15T00:20:25;98649.56;;;15.79
82636;BMP280;72317;37.280;-121.948;2024-01-15T00:22:51;98718.06;;;15.72
82636;BMP280;72317;37.280;-121.948;2024-01-15T00:25:19;98811.66;;;15.66
82636;BMP280;72317;37.280;-121.948;2024-01-15T00:27:45;98825.38;;;15.81
82636;BMP280;72317;37.280;-121.948;2024-01-15T00:30:12;98862.38;;;15.71
82636;BMP280;72317;37.280;-121.948;2024-01-15T00:32:39;98906.50;;;15.77
82636;BMP280;72317;37.280;-121.948;2024-01-15T00:35:05;98970.31;;;15.84
82636;BMP280;72317;37.280;-121.948;2024-01-15T00:37:31;98968.69;;;15.86
82636;BMP280;72317;37.280;-121.948;2024-01-15T00:39:57;98951.84;;;15.82
82636;BMP280;72317;37.280;-121.948;2024-01-15T00:42:23;98970.22;;;15.87
82636;BMP280;72317;37.280;-121.948;2024-01-15T00:44:49;98945.81;;;15.78
82636;BMP280;72317;37.280;-121.948;2024-01-15T00:47:18;98988.31;;;15.65
82636;BMP280;72317;37.280;-121.948;2024-01-15T00:49:44;99073.81;;;15.68
82636;BMP280;72317;37.280;-121.948;2024-01-15T00:52:10;99219.94;;;15.57
82636;BMP280;72317;37.280;-121.948;2024-01-15T00:54:36;99309.28;;;15.34
82636;BMP280;72317;37.280;-121.948;2024-01-15T00:57:03;99469.00;;;15.29
82636;BMP280;72317;37.280;-121.948;2024-01-15T00:59:30;99545.75;;;15.28
82636;BMP280;72317;37.280;-121.948;2024-01-15T01:01:56;99666.31;;;15.15
82636;BMP280;72317;37.280;-121.948;2024-01-15T01:04:22;99743.25;;;15.23
82636;BMP280;72317;37.280;-121.948;2024-01-15T01:06:48;99835.31;;;15.05
82636;BMP280;72317;37.280;-121.948;2024-01-15T01:09:14;99957.31;;;14.89
82636;BMP280;72317;37.280;-121.948;2024-01-15T01:11:40;100068.44;;;14.80
82636;BMP280;72317;37.280;-121.948;2024-01-15T01:14:07;100121.28;;;14.71
82636;BMP280;72317;37.280;-121.948;2024-01-15T01:16:33;100176.97;;;14.54
82636;BMP280;72317;37.280;-121.948;2024-01-15T01:19:05;100216.25;;;14.51
82636;BMP280;72317;37.280;-121.948;2024-01-15T01:21:33;100194.28;;;14.57
82636;BMP280;72317;37.280;-121.948;2024-01-15T01:23:59;100191.97;;;14.55
82636;BMP280;72317;37.280;-121.948;2024-01-15T01:26:26;100177.41;;;14.49
82636;BMP280;72317;37.280;-121.948;2024-01-15T01:28:52;100125.03;;;14.46
82636;BMP280;72317;37.280;-121.948;2024-01-15T01:31:18;100054.66;;;14.37
82636;BMP280;72317;37.280;-121.948;2024-01-15T01:33:44;99860.69;;;14.34
82636;BMP280;72317;37.280;-121.948;2024-01-15T01:36:11;99805.66;;;14.31
82636;BMP280;72317;37.280;-121.948;2024-01-15T01:38:37;99368.47;;;14.27
82636;BMP280;72317;37.280;-121.948;2024-01-15T01:41:04;99296.94;;;14.26
82636;BMP280;72317;37.280;-121.948;2024-01-15T01:43:31;99125.94;;;14.14
82636;BMP280;72317;37.280;-121.948;2024-01-15T01:45:57;98932.19;;;13.95
82636;BMP280;72317;37.280;-121.948;2024-01-15T01:48:25;98449.38;;;13.88
82636;BMP280;72317;37.280;-121.948;2024-01-15T01:50:54;98391.09;;;13.95
82636;BMP280;72317;37.280;-121.948;2024-01-15T01:53:22;98378.19;;;13.89
82636;BMP280;72317;37.280;-121.948;2024-01-15T01:55:50;98365.19;;;13.88
82636;BMP280;72317;37.280;-121.948;2024-01-15T01:58:18;98373.06;;;13.82
82636;BMP280;72317;37.280;-121.948;2024-01-15T02:00:47;98367.50;;;13.77
82636;BMP280;72317;37.280;-121.948;2024-01-15T02:03:15;98369.47;;;13.64
82636;BMP280;72317;37.280;-121.948;2024-01-15T02:05:43;98405.16;;;13.55
82636;BMP280;72317;37.280;-121.948;2024-01-15T02:08:13;98440.13;;;13.55
82636;BMP280;72317;37.280;-121.948;2024-01-15T02:10:40;98483.81;;;13.46
82636;BMP280;72317;37.280;-121.948;2024-01-15T02:13:07;98507.69;;;13.57
82636;BMP280;72317;37.280;-121.948;2024-01-15T02:15:34;98520.59;;;13.49
82636;BMP280;72317;37.280;-121.948;2024-01-15T02:18:03;98547.38;;;13.53
82636;BMP280;72317;37.280;-121.948;2024-01-15T02:20:31;98610.00;;;13.53
82636;BMP280;72317;37.280;-121.948;2024-01-15T02:23:11;98632.19;;;13.45
82636;BMP280;72317;37.280;-121.948;2024-01-15T02:25:43;98642.06;;;13.48
82636;BMP280;72317;37.280;-121.948;2024-01-15T02:28:12;98643.66;;;13.45
82636;BMP280;72317;37.280;-121.948;2024-01-15T02:30:40;98662.72;;;13.25
82636;BMP280;72317;37.280;-121.948;2024-01-15T02:33:08;98720.38;;;13.08
82636;BMP280;72317;37.280;-121.948;2024-01-15T02:35:36;98730.53;;;13.17
82636;BMP280;72317;37.280;-121.948;2024-01-15T02:38:03;98740.16;;;13.02
82636;BMP280;72317;37.280;-121.948;2024-01-15T02:40:30;98768.72;;;13.12
82636;BMP280;72317;37.280;-121.948;2024-01-15T02:42:57;98775.78;;;13.06
82636;BMP280;72317;37.280;-121.948;2024-01-15T02:45:24;98783.41;;;13.07
82636;BMP280;72317;37.280;-121.948;2024-01-15T02:47:51;98800.41;;;13.04
82636;BMP280;72317;37.280;-121.948;2024-01-15T02:50:18;98810.13;;;12.98
82636;BMP280;72317;37.280;-121.948;2024-01-15T02:52:45;98839.53;;;12.89
82636;BMP280;72317;37.280;-121.948;2024-01-15T02:55:12;98836.66;;;12.80
82636;BMP280;72317;37.280;-121.948;2024-01-15T02:57:38;98842.91;;;12.77
82636;BMP280;72317;37.280;-121.948;2024-01-15T03:00:06;98824.66;;;12.84
82636;BMP280;72317;37.280;-121.948;2024-01-15T03:02:36;98813.91;;;12.84
82636;BMP280;72317;37.280;-121.948;2024-01-15T03:05:05;98811.47;;;12.74
82636;BMP280;72317;37.280;-121.948;2024-01-15T03:07:33;98812.22;;;12.74
82636;BMP280;72317;37.280;-121.948;2024-01-15T03:10:00;98831.56;;;12.69
82636;BMP280;72317;37.280;-121.948;2024-01-15T03:12:26;98841.63;;;12.65
82636;BMP280;72317;37.280;-121.948;2024-01-15T03:14:53;98847.94;;;12.58
82636;BMP280;72317;37.280;-121.948;2024-01-15T03:17:41;98833.28;;;12.59
82636;BMP280;72317;37.280;-121.948;2024-01-15T03:20:09;98851.09;;;12.53
82636;BMP280;72317;37.280;-121.948;2024-01-15T03:22:35;98862.81;;;12.43
82636;BMP280;72317;37.280;-121.948;2024-01-15T03:25:02;98862.47;;;12.41
82636;BMP280;72317;37.280;-121.948;2024-01-15T03:27:28;98861.47;;;12.35
82636;BMP280;72317;37.280;-121.948;2024-01-15T03:29:54;98868.78;;;12.15
82636;BMP280;72317;37.280;-121.948;2024-01-15T03:32:21;98849.34;;;12.27
82636;BMP280;72317;37.280;-121.948;2024-01-15T03:34:47;98827.06;;;12.30
82636;BMP280;72317;37.280;-121.948;2024-01-15T03:37:14;98814.88;;;12.25
82636;BMP280;72317;37.280;-121.948;2024-01-15T03:39:40;98814.00;;;12.12
82636;BMP280;72317;37.280;-121.948;2024-01-15T03:42:06;98807.63;;;12.06
82636;BMP280;72317;37.280;-121.948;2024-01-15T03:44:33;98791.75;;;12.12
82636;BMP280;72317;37.280;-121.948;2024-01-15T03:46:59;98796.34;;;11.95
82636;BMP280;72317;37.280;-121.948;2024-01-15T03:49:26;98793.38;;;11.89
82636;BMP280;72317;37.280;-121.948;2024-01-15T03:51:52;98791.84;;;11.88
82636;BMP280;72317;37.280;-121.948;2024-01-15T03:54:18;98787.38;;;11.81
82636;BMP280;72317;37.280;-121.948;2024-01-15T03:56:45;98778.78;;;11.70
82636;BMP280;72317;37.280;-121.948;2024-01-15T03:59:11;98760.78;;;11.71
82636;BMP280;72317;37.280;-121.948;2024-01-15T04:01:37;98740.75;;;11.75
82636;BMP280;72317;37.280;-121.948;2024-01-15T04:04:04;98728.25;;;11.69
82636;BMP280;72317;37.280;-121.948;2024-01-15T04:06:30;98714.75;;;11.52
82636;BMP280;72317;37.280;-121.948;2024-01-15T04:08:56;98709.34;;;11.56
82636;BMP280;72317;37.280;-121.948;2024-01-15T04:11:22;98707.63;;;11.46
82636;BMP280;72317;37.280;-121.948;2024-01-15T04:13:49;98685.97;;;11.37
82636;BMP280;72317;37.280;-121.948;2024-01-15T04:16:15;98642.97;;;11.60
82636;BMP280;72317;37.280;-121.948;2024-01-15T04:18:41;98604.34;;;11.74
82636;BMP280;72317;37.280;-121.948;2024-01-15T04:21:07;98621.16;;;11.58
82636;BMP280;72317;37.280;-121.948;2024-01-15T04:23:34;98628.50;;;11.38
82636;BMP280;72317;37.280;-121.948;2024-01-15T04:26:00;98618.59;;;11.35
82636;BMP280;72317;37.280;-121.948;2024-01-15T04:28:26;98591.91;;;11.47
82636;BMP280;72317;37.280;-121.948;2024-01-15T04:30:53;98574.13;;;11.54
82636;BMP280;72317;37.280;-121.948;2024-01-15T04:33:19;98569.88;;;11.56
82636;BMP280;72317;37.280;-121.948;2024-01-15T04:35:45;98578.75;;;11.53
82636;BMP280;72317;37.280;-121.948;2024-01-15T04:38:12;98579.91;;;11.52
82636;BMP280;72317;37.280;-121.948;2024-01-15T04:40:38;98580.88;;;11.62
82636;BMP280;72317;37.280;-121.948;2024-01-15T04:43:04;98609.50;;;11.48
82636;BMP280;72317;37.280;-121.948;2024-01-15T04:45:31;98616.59;;;11.39
82636;BMP280;72317;37.280;-121.948;2024-01-15T04:47:57;98634.47;;;11.26
82636;BMP280;72317;37.280;-121.948;2024-01-15T04:50:23;98640.66;;;11.23
82636;BMP280;72317;37.280;-121.948;2024-01-15T04:52:50;98643.56;;;11.12
82636;BMP280;72317;37.280;-121.948;2024-01-15T04:55:16;98611.66;;;11.17
82636;BMP280;72317;37.280;-121.948;2024-01-15T04:57:42;98619.31;;;11.19
82636;BMP280;72317;37.280;-121.948;2024-01-15T05:00:10;98637.69;;;10.97
82636;BMP280;72317;37.280;-121.948;2024-01-15T05:02:36;98630.09;;;10.96
82636;BMP280;72317;37.280;-121.948;2024-01-15T05:05:02;98639.72;;;10.89
82636;BMP280;72317;37.280;-121.948;2024-01-15T05:07:28;98624.50;;;10.86
82636;BMP280;72317;37.280;-121.948;2024-01-15T05:09:54;98616.31;;;10.93
82636;BMP280;72317;37.280;-121.948;2024-01-15T05:12:21;98594.06;;;10.97
82636;BMP280;72317;37.280;-121.948;2024-01-15T05:14:47;98590.28;;;10.94
82636;BMP280;72317;37.280;-121.948;2024-01-15T05:17:13;98593.13;;;10.87
82636;BMP280;72317;37.280;-121.948;2024-01-15T05:19:39;98596.59;;;10.84
82636;BMP280;72317;37.280;-121.948;2024-01-15T05:22:05;98580.47;;;10.87
82636;BMP280;72317;37.280;-121.948;2024-01-15T05:24:31;98573.47;;;10.93
82636;BMP280;72317;37.280;-121.948;2024-01-15T05:26:57;98573.94;;;10.88
82636;BMP280;72317;37.280;-121.948;2024-01-15T05:29:23;98597.84;;;10.79
82636;BMP280;72317;37.280;-121.948;2024-01-15T05:31:50;98576.75;;;10.81
82636;BMP280;72317;37.280;-121.948;2024-01-15T05:34:16;98584.88;;;10.78
82636;BMP280;72317;37.280;-121.948;2024-01-15T05:36:42;98572.22;;;10.78
82636;BMP280;72317;37.280;-121.948;2024-01-15T05:39:08;98559.81;;;10.88
82636;BMP280;72317;37.280;-121.948;2024-01-15T05:41:34;98590.22;;;10.78
82636;BMP280;72317;37.280;-121.948;2024-01-15T05:44:00;98602.97;;;10.70
82636;BMP280;72317;37.280;-121.948;2024-01-15T05:46:27;98591.41;;;10.77
82636;BMP280;72317;37.280;-121.948;2024-01-15T05:48:53;98594.56;;;10.72
82636;BMP280;72317;37.280;-121.948;2024-01-15T05:51:19;98610.72;;;10.64
82636;BMP280;72317;37.280;-121.948;2024-01-15T05:53:45;98615.38;;;10.60
82636;BMP280;72317;37.280;-121.948;2024-01-15T05:56:11;98631.94;;;10.55
82636;BMP280;72317;37.280;-121.948;2024-01-15T05:58:37;98618.88;;;10.57
82636;BMP280;72317;37.280;-121.948;2024-01-15T06:01:03;98621.22;;;10.55
82636;BMP280;72317;37.280;-121.948;2024-01-15T06:03:30;98630.53;;;10.47
82636;BMP280;72317;37.280;-121.948;2024-01-15T06:05:56;98632.03;;;10.48
82636;BMP280;72317;37.280;-121.948;2024-01-15T06:08:22;98634.25;;;10.53
82636;BMP280;72317;37.280;-121.948;2024-01-15T06:10:48;98670.59;;;10.27
82636;BMP280;72317;37.280;-121.948;2024-01-15T06:13:14;98627.91;;;10.44
82636;BMP280;72317;37.280;-121.948;2024-01-15T06:15:40;98635.34;;;10.32
82636;BMP280;72317;37.280;-121.948;2024-01-15T06:18:06;98631.59;;;10.30
82636;BMP280;72317;37.280;-121.948;2024-01-15T06:20:33;98653.28;;;10.09
82636;BMP280;72317;37.280;-121.948;2024-01-15T06:22:59;98617.56;;;10.22
82636;BMP280;72317;37.280;-121.948;2024-01-15T06:25:25;98612.47;;;10.28
82636;BMP280;72317;37.280;-121.948;2024-01-15T06:27:51;98627.28;;;10.09
82636;BMP280;72317;37.280;-121.948;2024-01-15T06:30:17;98591.81;;;10.28
82636;BMP280;72317;37.280;-121.948;2024-01-15T06:32:43;98569.38;;;10.46
82636;BMP280;72317;37.280;-121.948;2024-01-15T06:35:09;98580.59;;;10.37
82636;BMP280;72317;37.280;-121.948;2024-01-15T06:37:37;98594.03;;;10.33
82636;BMP280;72317;37.280;-121.948;2024-01-15T06:40:04;98605.22;;;10.28
82636;BMP280;72317;37.280;-121.948;2024-01-15T06:42:31;98602.53;;;10.28
82636;BMP280;72317;37.280;-121.948;2024-01-15T06:44:57;98621.16;;;10.12
82636;BMP280;72317;37.280;-121.948;2024-01-15T06:47:23;98613.94;;;10.05
82636;BMP280;72317;37.280;-121.948;2024-01-15T06:49:49;98583.22;;;10.17
82636;BMP280;72317;37.280;-121.948;2024-01-15T06:52:17;98594.19;;;9.99
82636;BMP280;72317;37.280;-121.948;2024-01-15T06:54:43;98571.84;;;10.10
82636;BMP280;72317;37.280;-121.948;2024-01-15T06:57:10;98572.84;;;9.96
82636;BMP280;72317;37.280;-121.948;2024-01-15T06:59:36;98559.38;;;10.03
82636;BMP280;72317;37.280;-121.948;2024-01-15T07:02:03;98538.81;;;10.20
82636;BMP280;72317;37.280;-121.948;2024-01-15T07:04:29;98560.41;;;10.09
82636;BMP280;72317;37.280;-121.948;2024-01-15T07:06:55;98561.91;;;10.10
82636;BMP280;72317;37.280;-121.948;2024-01-15T07:09:21;98546.50;;;10.18
82636;BMP280;72317;37.280;-121.948;2024-01-15T07:11:48;98577.38;;;9.99
82636;BMP280;72317;37.280;-121.948;2024-01-15T07:14:14;98564.75;;;9.99
82636;BMP280;72317;37.280;-121.948;2024-01-15T07:16:40;98562.16;;;9.96
82636;BMP280;72317;37.280;-121.948;2024-01-15T07:19:06;98586.16;;;9.72
82636;BMP280;72317;37.280;-121.948;2024-01-15T07:21:33;98568.66;;;9.68
82636;BMP280;72317;37.280;-121.948;2024-01-15T07:23:59;98529.72;;;9.67
82636;BMP280;72317;37.280;-121.948;2024-01-15T07:26:25;98488.44;;;9.68
82636;BMP280;72317;37.280;-121.948;2024-01-15T07:28:51;98459.09;;;9.64
82636;BMP280;72317;37.280;-121.948;2024-01-15T07:31:18;98453.34;;;9.66
82636;BMP280;72317;37.280;-121.948;2024-01-15T07:33:44;98451.78;;;9.68
82636;BMP280;72317;37.280;-121.948;2024-01-15T07:36:10;98433.13;;;9.65
82636;BMP280;72317;37.280;-121.948;2024-01-15T07:38:36;98404.00;;;9.70
82636;BMP280;72317;37.280;-121.948;2024-01-15T07:41:03;98390.94;;;9.76
82636;BMP280;72317;37.280;-121.948;2024-01-15T07:43:29;98430.22;;;9.56
82636;BMP280;72317;37.280;-121.948;2024-01-15T07:45:55;98429.31;;;9.39
82636;BMP280;72317;37.280;-121.948;2024-01-15T07:48:22;98403.00;;;9.37
82636;BMP280;72317;37.280;-121.948;2024-01-15T07:50:49;98364.78;;;9.40
82636;BMP280;72317;37.280;-121.948;2024-01-15T07:53:15;98325.28;;;9.52
82636;BMP280;72317;37.280;-121.948;2024-01-15T07:55:41;98317.34;;;9.44
82636;BMP280;72317;37.280;-121.948;2024-01-15T07:58:07;98287.91;;;9.48
82636;BMP280;72317;37.280;-121.948;2024-01-15T08:00:34;98267.69;;;9.47
82636;BMP280;72317;37.280;-121.948;2024-01-15T08:03:00;98231.59;;;9.59
82636;BMP280;72317;37.280;-121.948;2024-01-15T08:05:26;98215.06;;;9.64
82636;BMP280;72317;37.280;-121.948;2024-01-15T08:07:53;98219.59;;;9.67
82636;BMP280;72317;37.280;-121.948;2024-01-15T08:10:19;98215.38;;;9.69
82636;BMP280;72317;37.280;-121.948;2024-01-15T08:12:46;98204.94;;;9.75
82636;BMP280;72317;37.280;-121.948;2024-01-15T08:15:12;98200.59;;;9.81
82636;BMP280;72317;37.280;-121.948;2024-01-15T08:17:38;98191.22;;;9.93
82636;BMP280;72317;37.280;-121.948;2024-01-15T08:20:04;98192.47;;;10.04
82636;BMP280;72317;37.280;-121.948;2024-01-15T08:22:30;98227.41;;;9.97
82636;BMP280;72317;37.280;-121.948;2024-01-15T08:24:57;98243.53;;;9.94
82636;BMP280;72317;37.280;-121.948;2024-01-15T08:27:23;98233.34;;;10.05
82636;BMP280;72317;37.280;-121.948;2024-01-15T08:29:49;98237.81;;;10.12
82636;BMP280;72317;37.280;-121.948;2024-01-15T08:32:15;98253.34;;;10.17
82636;BMP280;72317;37.280;-121.948;2024-01-15T08:34:41;98280.50;;;10.15
82636;BMP280;72317;37.280;-121.948;2024-01-15T08:37:08;98296.03;;;10.04
82636;BMP280;72317;37.280;-121.948;2024-01-15T08:39:34;98272.16;;;10.13
82636;BMP280;72317;37.280;-121.948;2024-01-15T08:42:04;98263.59;;;10.22
82636;BMP280;72317;37.280;-121.948;2024-01-15T08:44:31;98272.38;;;10.22
82636;BMP280;72317;37.280;-121.948;2024-01-15T08:46:57;98287.97;;;10.24
82636;BMP280;72317;37.280;-121.948;2024-01-15T08:49:23;98262.84;;;10.38
82636;BMP280;72317;37.280;-121.948;2024-01-15T08:51:49;98251.44;;;10.53
82636;BMP280;72317;37.280;-121.948;2024-01-15T08:54:15;98267.50;;;10.53
82636;BMP280;72317;37.280;-121.948;2024-01-15T08:56:41;98272.56;;;10.64
82636;BMP280;72317;37.280;-121.948;2024-01-15T08:59:07;98284.47;;;10.63
82636;BMP280;72317;37.280;-121.948;2024-01-15T09:01:34;98295.09;;;10.67
82636;BMP280;72317;37.280;-121.948;2024-01-15T09:04:00;98302.53;;;10.75
82636;BMP280;72317;37.280;-121.948;2024-01-15T09:06:26;98307.84;;;10.79
82636;BMP280;72317;37.280;-121.948;2024-01-15T09:08:52;98328.19;;;10.76
82636;BMP280;72317;37.280;-121.948;2024-01-15T09:11:18;98334.78;;;10.72
82636;BMP280;72317;37.280;-121.948;2024-01-15T09:13:44;98342.81;;;10.72
82636;BMP280;72317;37.280;-121.948;2024-01-15T09:16:10;98348.25;;;10.68
82636;BMP280;72317;37.280;-121.948;2024-01-15T09:18:36;98346.13;;;10.59
82636;BMP280;72317;37.280;-121.948;2024-01-15T09:21:03;98338.44;;;10.61
82636;BMP280;72317;37.280;-121.948;2024-01-15T09:23:30;98333.91;;;10.58
82636;BMP280;72317;37.280;-121.948;2024-01-15T09:25:56;98325.88;;;10.58
82636;BMP280;72317;37.280;-121.948;2024-01-15T09:28:22;98298.44;;;10.54
82636;BMP280;72317;37.280;-121.948;2024-01-15T09:30:48;98283.03;;;10.58
82636;BMP280;72317;37.280;-121.948;2024-01-15T09:33:14;98278.88;;;10.57
82636;BMP280;72317;37.280;-121.948;2024-01-15T09:35:41;98271.66;;;10.54
82636;BMP280;72317;37.280;-121.948;2024-01-15T09:38:07;98275.22;;;10.48
82636;BMP280;72317;37.280;-121.948;2024-01-15T09:40:33;98247.63;;;10.51
82636;BMP280;72317;37.280;-121.948;2024-01-15T09:43:00;98233.91;;;10.49
82636;BMP280;72317;37.280;-121.948;2024-01-15T09:45:26;98222.97;;;10.43
82636;BMP280;72317;37.280;-121.948;2024-01-15T09:47:53;98220.94;;;10.31
82636;BMP280;72317;37.280;-121.948;2024-01-15T09:50:19;98206.66;;;10.38
82636;BMP280;72317;37.280;-121.948;2024-01-15T09:53:06;98189.16;;;10.33
82636;BMP280;72317;37.280;-121.948;2024-01-15T09:55:32;98164.16;;;10.40
82636;BMP280;72317;37.280;-121.948;2024-01-15T09:58:01;98150.88;;;10.36
82636;BMP280;72317;37.280;-121.948;2024-01-15T10:00:28;98142.50;;;10.34
82636;BMP280;72317;37.280;-121.948;2024-01-15T10:02:56;98087.22;;;10.44
82636;BMP280;72317;37.280;-121.948;2024-01-15T10:05:22;98081.03;;;10.47
82636;BMP280;72317;37.280;-121.948;2024-01-15T10:07:48;98057.41;;;10.58
82636;BMP280;72317;37.280;-121.948;2024-01-15T10:10:15;98078.47;;;10.56
82636;BMP280;72317;37.280;-121.948;2024-01-15T10:12:42;98087.97;;;10.44
82636;BMP280;72317;37.280;-121.948;2024-01-15T10:15:12;98040.09;;;10.62
82636;BMP280;72317;37.280;-121.948;2024-01-15T10:17:39;98050.28;;;10.68
82636;BMP280;72317;37.280;-121.948;2024-01-15T10:20:09;98059.81;;;10.69
82636;BMP280;72317;37.280;-121.948;2024-01-15T10:22:35;98097.38;;;10.65
82636;BMP280;72317;37.280;-121.948;2024-01-15T10:25:05;98116.03;;;10.69
82636;BMP280;72317;37.280;-121.948;2024-01-15T10:27:31;98153.03;;;10.57
82636;BMP280;72317;37.280;-121.948;2024-01-15T10:30:00;98174.78;;;10.59
82636;BMP280;72317;37.280;-121.948;2024-01-15T10:32:28;98189.50;;;10.51
82636;BMP280;72317;37.280;-121.948;2024-01-15T10:34:54;98209.09;;;10.48
82636;BMP280;72317;37.280;-121.948;2024-01-15T10:37:21;98207.41;;;10.54
82636;BMP280;72317;37.280;-121.948;2024-01-15T10:39:49;98204.28;;;10.56
82636;BMP280;72317;37.280;-121.948;2024-01-15T10:42:15;98215.34;;;10.58
82636;BMP280;72317;37.280;-121.948;2024-01-15T10:44:44;98223.78;;;10.56
82636;BMP280;72317;37.280;-121.948;2024-01-15T10:47:10;98234.94;;;10.55
82636;BMP280;72317;37.280;-121.948;2024-01-15T10:49:37;98225.13;;;10.64
82636;BMP280;72317;37.280;-121.948;2024-01-15T10:52:04;98257.94;;;10.52
82636;BMP280;72317;37.280;-121.948;2024-01-15T10:54:30;98269.44;;;10.33
82636;BMP280;72317;37.280;-121.948;2024-01-15T10:56:57;98244.22;;;10.34
82636;BMP280;72317;37.280;-121.948;2024-01-15T10:59:24;98199.03;;;10.52
82636;BMP280;72317;37.280;-121.948;2024-01-15T11:01:51;98204.16;;;10.47
82636;BMP280;72317;37.280;-121.948;2024-01-15T11:04:21;98185.75;;;10.49
82636;BMP280;72317;37.280;-121.948;2024-01-15T11:06:51;98185.00;;;10.48
82636;BMP280;72317;37.280;-121.948;2024-01-15T11:09:19;98171.78;;;10.57
82636;BMP280;72317;37.280;-121.948;2024-01-15T11:11:46;98174.63;;;10.67
82636;BMP280;72317;37.280;-121.948;2024-01-15T11:14:35;98185.66;;;10.69
82636;BMP280;72317;37.280;-121.948;2024-01-15T11:17:01;98189.75;;;10.73
82636;BMP280;72317;37.280;-121.948;2024-01-15T11:19:38;98207.59;;;10.63
82636;BMP280;72317;37.280;-121.948;2024-01-15T11:22:09;98215.25;;;10.61
82636;BMP280;72317;37.280;-121.948;2024-01-15T11:24:39;98187.50;;;10.72
82636;BMP280;72317;37.280;-121.948;2024-01-15T11:27:07;98198.88;;;10.76
82636;BMP280;72317;37.280;-121.948;2024-01-15T11:29:35;98212.50;;;10.65
82636;BMP280;72317;37.280;-121.948;2024-01-15T11:32:06;98190.00;;;10.79
82636;BMP280;72317;37.280;-121.948;2024-01-15T11:34:53;98200.03;;;10.75
82636;BMP280;72317;37.280;-121.948;2024-01-15T11:37:20;98220.03;;;10.70
82636;BMP280;72317;37.280;-121.948;2024-01-15T11:39:51;98225.88;;;10.65
82636;BMP280;72317;37.280;-121.948;2024-01-15T11:42:19;98208.81;;;10.75
82636;BMP280;72317;37.280;-121.948;2024-01-15T11:44:46;98208.00;;;10.78
82636;BMP280;72317;37.280;-121.948;2024-01-15T11:47:12;98236.00;;;10.74
82636;BMP280;72317;37.280;-121.948;2024-01-15T11:49:58;98212.06;;;10.83
82636;BMP280;72317;37.280;-121.948;2024-01-15T11:52:26;98215.19;;;10.81
82636;BMP280;72317;37.280;-121.948;2024-01-15T11:57:42;98215.94;;;10.82
82636;BMP280;72317;37.280;-121.948;2024-01-15T12:00:12;98212.59;;;10.78
82636;BMP280;72317;37.280;-121.948;2024-01-15T12:02:40;98222.13;;;10.79
82636;BMP280;72317;37.280;-121.948;2024-01-15T12:05:08;98216.63;;;10.70
82636;BMP280;72317;37.280;-121.948;2024-01-15T12:07:34;98193.00;;;10.81
82636;BMP280;72317;37.280;-121.948;2024-01-15T12:10:01;98178.09;;;10.80
82636;BMP280;72317;37.280;-121.948;2024-01-15T12:15:15;98167.41;;;10.80
82636;BMP280;72317;37.280;-121.948;2024-01-15T12:17:41;98148.56;;;10.83
82636;BMP280;72317;37.280;-121.948;2024-01-15T12:20:08;98153.25;;;10.79
82636;BMP280;72317;37.280;-121.948;2024-01-15T12:22:34;98141.09;;;10.91
82636;BMP280;72317;37.280;-121.948;2024-01-15T12:25:01;98138.19;;;10.85
82636;BMP280;72317;37.280;-121.948;2024-01-15T12:27:27;98116.63;;;10.89
82636;BMP280;72317;37.280;-121.948;2024-01-15T12:29:53;98106.94;;;10.95
82636;BMP280;72317;37.280;-121.948;2024-01-15T12:32:19;98106.41;;;11.00
82636;BMP280;72317;37.280;-121.948;2024-01-15T12:34:49;98150.31;;;10.74
82636;BMP280;72317;37.280;-121.948;2024-01-15T12:37:18;98120.56;;;10.72
82636;BMP280;72317;37.280;-121.948;2024-01-15T12:39:47;98093.19;;;10.93
82636;BMP280;72317;37.280;-121.948;2024-01-15T12:42:17;98100.41;;;10.96
82636;BMP280;72317;37.280;-121.948;2024-01-15T12:44:45;98090.56;;;11.06
82636;BMP280;72317;37.280;-121.948;2024-01-15T12:47:11;98130.31;;;10.95
82636;BMP280;72317;37.280;-121.948;2024-01-15T12:49:39;98147.88;;;10.96
82636;BMP280;72317;37.280;-121.948;2024-01-15T12:52:09;98149.53;;;10.89
82636;BMP280;72317;37.280;-121.948;2024-01-15T12:54:35;98144.09;;;10.93
82636;BMP280;72317;37.280;-121.948;2024-01-15T12:57:01;98152.56;;;10.91
82636;BMP280;72317;37.280;-121.948;2024-01-15T12:59:28;98169.16;;;10.70
82636;BMP280;72317;37.280;-121.948;2024-01-15T13:01:55;98126.38;;;10.83
82636;BMP280;72317;37.280;-121.948;2024-01-15T13:04:24;98114.31;;;10.91
82636;BMP280;72317;37.280;-121.948;2024-01-15T13:06:51;98138.78;;;10.77
82636;BMP280;72317;37.280;-121.948;2024-01-15T13:09:18;98114.56;;;10.80
82636;BMP280;72317;37.280;-121.948;2024-01-15T13:11:47;98092.44;;;10.92
82636;BMP280;72317;37.280;-121.948;2024-01-15T13:14:13;98096.84;;;10.86
82636;BMP280;72317;37.280;-121.948;2024-01-15T13:16:40;98094.38;;;10.92
82636;BMP280;72317;37.280;-121.948;2024-01-15T13:19:08;98086.06;;;11.03
82636;BMP280;72317;37.280;-121.948;2024-01-15T13:21:37;98094.59;;;10.98
82636;BMP280;72317;37.280;-121.948;2024-01-15T13:24:03;98102.56;;;11.01
82636;BMP280;72317;37.280;-121.948;2024-01-15T13:26:32;98127.69;;;10.91
82636;BMP280;72317;37.280;-121.948;2024-01-15T13:29:00;98130.03;;;10.89
82636;BMP280;72317;37.280;-121.948;2024-01-15T13:31:27;98131.13;;;10.91
82636;BMP280;72317;37.280;-121.948;2024-01-15T13:34:14;98106.72;;;11.02
82636;BMP280;72317;37.280;-121.948;2024-01-15T13:36:40;98137.22;;;10.92
82636;BMP280;72317;37.280;-121.948;2024-01-15T13:39:06;98123.31;;;10.97